Time,TemperatureF,DewpointF,PressureIn,WindDirection,WindDirectionDegrees,WindSpeedMPH,WindSpeedGustMPH,Humidity,HourlyPrecipIn,Conditions,Clouds,dailyrainin,SoftwareType,DateUTC
2013-03-23 00:02:00,65.0,54.0,29.70,NNE,13,10.0,-999.0,67,0.00,,,0.00,,2013-03-23 05:02:00,
2013-03-23 00:12:00,65.0,54.0,29.70,NNE,13,10.0,-999.0,67,0.00,,,0.00,,2013-03-23 05:12:00,
2013-03-23 00:22:00,63.0,53.0,29.70,NE,39,10.0,-999.0,69,0.00,,,0.00,,2013-03-23 05:22:00,
2013-03-23 00:32:00,62.0,52.0,29.70,NNE,28,9.0,-999.0,69,0.00,,,0.00,,2013-03-23 05:32:00,
2013-03-23 00:42:00,62.0,52.0,29.70,NNE,28,9.0,-999.0,69,0.00,,,0.00,,2013-03-23 05:42:00,
2013-03-23 00:52:00,62.0,52.0,29.70,NE,50,9.0,-999.0,69,0.00,,,0.00,,2013-03-23 05:52:00,
2013-03-23 01:02:00,61.0,51.0,29.70,NNE,29,11.0,-999.0,70,0.00,,,0.00,,2013-03-23 06:02:00,
2013-03-23 01:12:00,61.0,51.0,29.70,NNE,29,11.0,-999.0,70,0.00,,,0.00,,2013-03-23 06:12:00,
2013-03-23 01:22:00,61.0,51.0,29.70,NE,49,8.0,-999.0,70,0.00,,,0.00,,2013-03-23 06:22:00,
2013-03-23 01:32:00,60.0,51.0,29.69,NE,37,6.0,-999.0,72,0.00,,,0.00,,2013-03-23 06:32:00,
2013-03-23 01:42:00,60.0,51.0,29.69,NE,37,6.0,-999.0,72,0.00,,,0.00,,2013-03-23 06:42:00,
2013-03-23 01:52:00,59.0,51.0,29.69,NE,40,9.0,-999.0,74,0.00,,,0.00,,2013-03-23 06:52:00,
2013-03-23 02:02:00,59.0,51.0,29.69,NE,46,6.0,-999.0,74,0.00,,,0.00,,2013-03-23 07:02:00,
2013-03-23 02:12:00,59.0,51.0,29.69,NE,46,6.0,-999.0,74,0.00,,,0.00,,2013-03-23 07:12:00,
2013-03-23 02:22:00,59.0,51.0,29.69,NNE,32,7.0,-999.0,74,0.00,,,0.00,,2013-03-23 07:22:00,
2013-03-23 02:32:00,59.0,51.0,29.68,NNE,19,7.0,-999.0,74,0.00,,,0.00,,2013-03-23 07:32:00,
2013-03-23 02:42:00,59.0,51.0,29.68,NNE,19,7.0,-999.0,74,0.00,,,0.00,,2013-03-23 07:42:00,
2013-03-23 02:52:00,59.0,51.0,29.69,NNE,22,11.0,-999.0,74,0.00,,,0.00,,2013-03-23 07:52:00,
2013-03-23 03:02:00,58.0,50.0,29.69,NNE,21,11.0,-999.0,74,0.00,,,0.00,,2013-03-23 08:02:00,
2013-03-23 03:12:00,58.0,50.0,29.69,NNE,21,11.0,-999.0,74,0.00,,,0.00,,2013-03-23 08:12:00,
2013-03-23 03:22:00,58.0,50.0,29.68,NNE,15,11.0,-999.0,74,0.00,,,0.00,,2013-03-23 08:22:00,
2013-03-23 03:32:00,58.0,50.0,29.68,NNE,27,10.0,-999.0,74,0.00,,,0.00,,2013-03-23 08:32:00,
2013-03-23 03:42:00,58.0,50.0,29.68,NNE,27,10.0,-999.0,74,0.00,,,0.00,,2013-03-23 08:42:00,
2013-03-23 03:52:00,57.0,50.0,29.69,NNE,21,9.0,-999.0,77,0.00,,,0.00,,2013-03-23 08:52:00,
2013-03-23 04:02:00,57.0,50.0,29.69,NNE,22,9.0,-999.0,77,0.00,,,0.00,,2013-03-23 09:02:00,
2013-03-23 04:12:00,57.0,50.0,29.69,NNE,22,9.0,-999.0,77,0.00,,,0.00,,2013-03-23 09:12:00,
2013-03-23 04:22:00,57.0,50.0,29.69,NNE,24,5.0,-999.0,77,0.00,,,0.00,,2013-03-23 09:22:00,
2013-03-23 04:33:00,57.0,51.0,29.69,North,5,8.0,-999.0,81,0.00,,,0.00,,2013-03-23 09:33:00,
2013-03-23 04:42:00,57.0,51.0,29.69,North,5,8.0,-999.0,81,0.00,,,0.00,,2013-03-23 09:42:00,
2013-03-23 04:53:00,57.0,51.0,29.68,North,9,5.0,-999.0,80,0.00,,,0.00,,2013-03-23 09:53:00,
2013-03-23 05:03:00,57.0,52.0,29.69,North,360,6.0,-999.0,83,0.00,,,0.01,,2013-03-23 10:03:00,
2013-03-23 05:12:00,57.0,52.0,29.69,North,360,6.0,-999.0,83,0.00,,,0.01,,2013-03-23 10:12:00,
2013-03-23 05:23:00,57.0,52.0,29.69,NNE,30,8.0,-999.0,83,0.00,,,0.01,,2013-03-23 10:23:00,
2013-03-23 05:33:00,57.0,52.0,29.70,North,360,5.0,-999.0,84,0.00,,,0.01,,2013-03-23 10:33:00,
2013-03-23 05:42:00,57.0,52.0,29.70,North,360,5.0,-999.0,84,0.00,,,0.01,,2013-03-23 10:42:00,
2013-03-23 05:52:00,57.0,52.0,29.70,NNE,26,7.0,-999.0,84,0.00,,,0.01,,2013-03-23 10:52:00,
2013-03-23 06:03:00,57.0,52.0,29.69,NNE,19,8.0,-999.0,84,0.00,,,0.01,,2013-03-23 11:03:00,
2013-03-23 06:12:00,57.0,52.0,29.69,NNE,19,8.0,-999.0,84,0.00,,,0.01,,2013-03-23 11:12:00,
2013-03-23 06:22:00,57.0,52.0,29.69,NNE,22,8.0,-999.0,83,0.00,,,0.01,,2013-03-23 11:22:00,
2013-03-23 06:32:00,57.0,52.0,29.68,NE,37,7.0,-999.0,83,0.00,,,0.01,,2013-03-23 11:32:00,
2013-03-23 06:42:00,57.0,52.0,29.68,NE,37,7.0,-999.0,83,0.00,,,0.01,,2013-03-23 11:42:00,
2013-03-23 06:52:00,56.0,51.0,29.67,NE,36,7.0,-999.0,83,0.00,,,0.01,,2013-03-23 11:52:00,
2013-03-23 07:02:00,56.0,51.0,29.67,NNE,26,7.0,-999.0,83,0.00,,,0.01,,2013-03-23 12:02:00,
2013-03-23 07:22:00,56.0,51.0,29.68,NNE,28,7.0,-999.0,82,0.00,,,0.01,,2013-03-23 12:22:00,
2013-03-23 07:33:00,56.0,51.0,29.68,NE,36,9.0,-999.0,83,0.00,,,0.01,,2013-03-23 12:33:00,
2013-03-23 07:42:00,56.0,51.0,29.68,NE,36,9.0,-999.0,83,0.00,,,0.01,,2013-03-23 12:42:00,
2013-03-23 07:53:00,55.0,50.0,29.69,NE,36,10.0,-999.0,83,0.00,,,0.01,,2013-03-23 12:53:00,
2013-03-23 08:02:00,56.0,51.0,29.69,NNE,25,13.0,-999.0,83,0.00,,,0.01,,2013-03-23 13:02:00,
2013-03-23 08:12:00,56.0,51.0,29.69,NNE,25,13.0,-999.0,83,0.00,,,0.01,,2013-03-23 13:12:00,
2013-03-23 08:22:00,55.0,50.0,29.70,NNE,26,12.0,-999.0,82,0.00,,,0.01,,2013-03-23 13:22:00,
2013-03-23 08:32:00,55.0,50.0,29.70,NNE,24,8.0,-999.0,82,0.00,,,0.01,,2013-03-23 13:32:00,
2013-03-23 08:42:00,55.0,50.0,29.70,NNE,24,8.0,-999.0,82,0.00,,,0.01,,2013-03-23 13:42:00,
2013-03-23 08:53:00,56.0,51.0,29.71,North,360,6.0,-999.0,82,0.00,,,0.01,,2013-03-23 13:53:00,
2013-03-23 09:03:00,56.0,51.0,29.71,NNE,30,10.0,-999.0,82,0.00,,,0.01,,2013-03-23 14:03:00,
2013-03-23 09:12:00,56.0,51.0,29.71,NNE,30,10.0,-999.0,82,0.00,,,0.01,,2013-03-23 14:12:00,
2013-03-23 09:22:00,56.0,51.0,29.72,NE,38,7.0,-999.0,82,0.00,,,0.01,,2013-03-23 14:22:00,
2013-03-23 09:32:00,56.0,51.0,29.73,NNE,15,6.0,-999.0,82,0.00,,,0.01,,2013-03-23 14:32:00,
2013-03-23 09:42:00,56.0,51.0,29.73,NNE,15,6.0,-999.0,82,0.00,,,0.01,,2013-03-23 14:42:00,
2013-03-23 09:52:00,57.0,51.0,29.73,NNE,13,7.0,-999.0,81,0.00,,,0.01,,2013-03-23 14:52:00,
2013-03-23 10:03:00,57.0,51.0,29.75,NNE,17,8.0,-999.0,81,0.00,,,0.01,,2013-03-23 15:03:00,
2013-03-23 10:12:00,57.0,51.0,29.75,NNE,17,8.0,-999.0,81,0.00,,,0.01,,2013-03-23 15:12:00,
2013-03-23 10:22:00,57.0,52.0,29.75,North,351,7.0,-999.0,82,0.00,,,0.01,,2013-03-23 15:22:00,
2013-03-23 10:33:00,57.0,51.0,29.75,NNW,331,6.0,-999.0,81,0.00,,,0.01,,2013-03-23 15:33:00,
2013-03-23 10:43:00,57.0,51.0,29.75,NNW,331,6.0,-999.0,81,0.00,,,0.01,,2013-03-23 15:43:00,
2013-03-23 10:53:00,57.0,51.0,29.75,NNE,28,9.0,-999.0,81,0.00,,,0.01,,2013-03-23 15:53:00,
2013-03-23 11:03:00,57.0,52.0,29.75,North,360,11.0,-999.0,83,0.00,,,0.01,,2013-03-23 16:03:00,
2013-03-23 11:12:00,57.0,52.0,29.75,North,360,11.0,-999.0,83,0.00,,,0.01,,2013-03-23 16:12:00,
2013-03-23 11:23:00,57.0,52.0,29.75,NNE,24,10.0,-999.0,83,0.00,,,0.01,,2013-03-23 16:23:00,
2013-03-23 11:32:00,56.0,51.0,29.75,North,351,9.0,-999.0,84,0.00,,,0.01,,2013-03-23 16:32:00,
2013-03-23 11:43:00,56.0,51.0,29.75,North,351,9.0,-999.0,84,0.00,,,0.01,,2013-03-23 16:43:00,
2013-03-23 11:53:00,59.0,53.0,29.73,NNW,348,7.0,-999.0,81,0.00,,,0.01,,2013-03-23 16:53:00,
2013-03-23 12:02:00,59.0,53.0,29.74,North,355,5.0,-999.0,80,0.00,,,0.01,,2013-03-23 17:02:00,
2013-03-23 12:12:00,60.0,54.0,29.72,ENE,61,4.0,-999.0,80,0.00,,,0.01,,2013-03-23 17:12:00,
2013-03-23 12:22:00,60.0,54.0,29.72,ENE,61,4.0,-999.0,80,0.00,,,0.01,,2013-03-23 17:22:00,
2013-03-23 12:32:00,62.0,54.0,29.71,ENE,57,9.0,-999.0,76,0.00,,,0.01,,2013-03-23 17:32:00,
2013-03-23 12:42:00,62.0,54.0,29.71,ENE,57,9.0,-999.0,76,0.00,,,0.01,,2013-03-23 17:42:00,
2013-03-23 12:53:00,64.0,56.0,29.71,NNE,27,8.0,-999.0,74,0.00,,,0.01,,2013-03-23 17:53:00,
2013-03-23 13:03:00,65.0,56.0,29.71,NNE,32,9.0,-999.0,72,0.00,,,0.01,,2013-03-23 18:03:00,
2013-03-23 13:12:00,65.0,56.0,29.71,NNE,32,9.0,-999.0,72,0.00,,,0.01,,2013-03-23 18:12:00,
2013-03-23 13:22:00,66.0,56.0,29.70,NE,36,6.0,-999.0,71,0.00,,,0.01,,2013-03-23 18:22:00,
2013-03-23 13:32:00,67.0,57.0,29.70,North,9,3.0,-999.0,70,0.00,,,0.01,,2013-03-23 18:32:00,
2013-03-23 13:42:00,67.0,57.0,29.70,North,9,3.0,-999.0,70,0.00,,,0.01,,2013-03-23 18:42:00,
2013-03-23 13:53:00,67.0,56.0,29.69,NE,36,3.0,-999.0,69,0.00,,,0.01,,2013-03-23 18:53:00,
2013-03-23 14:02:00,70.0,58.0,29.67,NE,41,4.0,-999.0,66,0.00,,,0.01,,2013-03-23 19:02:00,
2013-03-23 14:12:00,70.0,58.0,29.67,NE,41,4.0,-999.0,66,0.00,,,0.01,,2013-03-23 19:12:00,
2013-03-23 14:22:00,71.0,59.0,29.66,ENE,61,7.0,-999.0,65,0.00,,,0.01,,2013-03-23 19:22:00,
2013-03-23 14:32:00,72.0,60.0,29.65,NW,321,3.0,-999.0,65,0.00,,,0.01,,2013-03-23 19:32:00,
2013-03-23 14:42:00,72.0,60.0,29.65,NW,321,3.0,-999.0,65,0.00,,,0.01,,2013-03-23 19:42:00,
2013-03-23 14:53:00,74.0,61.0,29.64,ESE,110,7.0,-999.0,63,0.00,,,0.01,,2013-03-23 19:53:00,
2013-03-23 15:02:00,74.0,61.0,29.63,ESE,109,2.0,-999.0,65,0.00,,,0.01,,2013-03-23 20:02:00,
2013-03-23 15:12:00,74.0,61.0,29.63,ESE,109,2.0,-999.0,65,0.00,,,0.01,,2013-03-23 20:12:00,
2013-03-23 15:22:00,75.0,61.0,29.62,SE,135,3.0,-999.0,62,0.00,,,0.01,,2013-03-23 20:22:00,
2013-03-23 15:32:00,77.0,63.0,29.61,WNW,295,3.0,-999.0,61,0.00,,,0.01,,2013-03-23 20:32:00,
2013-03-23 15:42:00,77.0,63.0,29.61,WNW,295,3.0,-999.0,61,0.00,,,0.01,,2013-03-23 20:42:00,
2013-03-23 15:53:00,77.0,63.0,29.60,NW,315,1.0,-999.0,61,0.00,,,0.01,,2013-03-23 20:53:00,
2013-03-23 16:02:00,79.0,63.0,29.59,West,263,5.0,-999.0,59,0.00,,,0.01,,2013-03-23 21:02:00,
2013-03-23 16:12:00,79.0,63.0,29.59,West,263,5.0,-999.0,59,0.00,,,0.01,,2013-03-23 21:12:00,
2013-03-23 16:22:00,79.0,62.0,29.59,WSW,240,3.0,-999.0,57,0.00,,,0.01,,2013-03-23 21:22:00,
2013-03-23 16:32:00,80.0,63.0,29.58,South,170,1.0,-999.0,56,0.00,,,0.01,,2013-03-23 21:32:00,
2013-03-23 16:43:00,80.0,63.0,29.58,South,170,1.0,-999.0,56,0.00,,,0.01,,2013-03-23 21:43:00,
2013-03-23 16:54:00,80.0,62.0,29.57,SSW,204,1.0,-999.0,55,0.00,,,0.01,,2013-03-23 21:54:00,
2013-03-23 17:02:00,80.0,62.0,29.57,ESE,104,3.0,-999.0,55,0.00,,,0.01,,2013-03-23 22:02:00,
2013-03-23 17:12:00,80.0,62.0,29.57,ESE,104,3.0,-999.0,55,0.00,,,0.01,,2013-03-23 22:12:00,
2013-03-23 17:23:00,80.0,62.0,29.56,SSW,212,4.0,-999.0,54,0.00,,,0.01,,2013-03-23 22:23:00,
2013-03-23 17:33:00,81.0,62.0,29.57,South,177,3.0,-999.0,52,0.00,,,0.01,,2013-03-23 22:33:00,
2013-03-23 17:42:00,81.0,62.0,29.57,South,177,3.0,-999.0,52,0.00,,,0.01,,2013-03-23 22:42:00,
2013-03-23 17:52:00,81.0,61.0,29.55,ENE,78,0.0,-999.0,51,0.00,,,0.01,,2013-03-23 22:52:00,
2013-03-23 18:02:00,81.0,61.0,29.55,East,84,2.0,-999.0,51,0.00,,,0.01,,2013-03-23 23:02:00,
2013-03-23 18:12:00,81.0,61.0,29.55,East,84,2.0,-999.0,51,0.00,,,0.01,,2013-03-23 23:12:00,
2013-03-23 18:22:00,81.0,62.0,29.55,SSE,150,2.0,-999.0,52,0.00,,,0.01,,2013-03-23 23:22:00,
2013-03-23 18:32:00,81.0,62.0,29.56,SE,130,2.0,-999.0,52,0.00,,,0.01,,2013-03-23 23:32:00,
2013-03-23 18:42:00,81.0,62.0,29.56,SE,130,2.0,-999.0,52,0.00,,,0.01,,2013-03-23 23:42:00,
2013-03-23 18:52:00,81.0,62.0,29.56,SE,140,4.0,-999.0,52,0.00,,,0.01,,2013-03-23 23:52:00,
2013-03-23 19:02:00,81.0,62.0,29.57,SSE,150,5.0,-999.0,52,0.00,,,0.01,,2013-03-24 00:02:00,
2013-03-23 19:12:00,81.0,62.0,29.57,SSE,150,5.0,-999.0,52,0.00,,,0.01,,2013-03-24 00:12:00,
2013-03-23 19:22:00,81.0,62.0,29.57,East,86,6.0,-999.0,52,0.00,,,0.01,,2013-03-24 00:22:00,
2013-03-23 19:32:00,80.0,61.0,29.57,ESE,109,4.0,-999.0,52,0.00,,,0.01,,2013-03-24 00:32:00,
2013-03-23 19:42:00,80.0,61.0,29.57,ESE,109,4.0,-999.0,52,0.00,,,0.01,,2013-03-24 00:42:00,
2013-03-23 19:52:00,79.0,60.0,29.57,ESE,102,8.0,-999.0,52,0.00,,,0.01,,2013-03-24 00:52:00,
2013-03-23 20:02:00,79.0,60.0,29.58,ESE,111,4.0,-999.0,53,0.00,,,0.01,,2013-03-24 01:02:00,
2013-03-23 20:12:00,79.0,60.0,29.58,ESE,111,4.0,-999.0,53,0.00,,,0.01,,2013-03-24 01:12:00,
2013-03-23 20:22:00,78.0,60.0,29.58,East,88,5.0,-999.0,54,0.00,,,0.01,,2013-03-24 01:22:00,
2013-03-23 20:32:00,75.0,60.0,29.58,East,82,2.0,-999.0,59,0.00,,,0.01,,2013-03-24 01:32:00,
2013-03-23 20:42:00,75.0,60.0,29.58,East,82,2.0,-999.0,59,0.00,,,0.01,,2013-03-24 01:42:00,
2013-03-23 20:53:00,74.0,60.0,29.59,East,100,2.0,-999.0,61,0.00,,,0.01,,2013-03-24 01:53:00,
2013-03-23 21:02:00,73.0,60.0,29.60,East,100,2.0,-999.0,63,0.00,,,0.01,,2013-03-24 02:02:00,
2013-03-23 21:12:00,73.0,60.0,29.60,East,100,2.0,-999.0,63,0.00,,,0.01,,2013-03-24 02:12:00,
2013-03-23 21:22:00,73.0,60.0,29.60,NE,53,3.0,-999.0,64,0.00,,,0.01,,2013-03-24 02:22:00,
2013-03-23 21:32:00,72.0,60.0,29.60,East,84,2.0,-999.0,65,0.00,,,0.01,,2013-03-24 02:32:00,
2013-03-23 21:42:00,72.0,60.0,29.60,East,84,2.0,-999.0,65,0.00,,,0.01,,2013-03-24 02:42:00,
2013-03-23 21:52:00,71.0,59.0,29.61,ENE,63,3.0,-999.0,66,0.00,,,0.01,,2013-03-24 02:52:00,
2013-03-23 22:02:00,71.0,59.0,29.62,NE,35,3.0,-999.0,67,0.00,,,0.01,,2013-03-24 03:02:00,
2013-03-23 22:12:00,71.0,59.0,29.62,NE,35,3.0,-999.0,67,0.00,,,0.01,,2013-03-24 03:12:00,
2013-03-23 22:22:00,71.0,59.0,29.62,NE,40,1.0,-999.0,67,0.00,,,0.01,,2013-03-24 03:22:00,
2013-03-23 22:33:00,71.0,59.0,29.63,NE,40,1.0,-999.0,67,0.00,,,0.01,,2013-03-24 03:33:00,
2013-03-23 22:42:00,71.0,59.0,29.63,NE,40,1.0,-999.0,67,0.00,,,0.01,,2013-03-24 03:42:00,
2013-03-23 22:53:00,69.0,58.0,29.63,NE,40,1.0,-999.0,69,0.00,,,0.01,,2013-03-24 03:53:00,
2013-03-23 23:02:00,69.0,59.0,29.64,NE,40,1.0,-999.0,70,0.00,,,0.01,,2013-03-24 04:02:00,
2013-03-23 23:12:00,69.0,59.0,29.64,NE,40,1.0,-999.0,70,0.00,,,0.01,,2013-03-24 04:12:00,
2013-03-23 23:22:00,69.0,59.0,29.64,NE,40,0.0,-999.0,71,0.00,,,0.01,,2013-03-24 04:22:00,
2013-03-23 23:32:00,68.0,59.0,29.65,NE,40,0.0,-999.0,73,0.00,,,0.01,,2013-03-24 04:32:00,
2013-03-23 23:42:00,68.0,59.0,29.65,NE,40,0.0,-999.0,73,0.00,,,0.01,,2013-03-24 04:42:00,
2013-03-23 23:53:00,67.0,58.0,29.65,NNW,336,0.0,-999.0,74,0.00,,,0.01,,2013-03-24 04:53:00,